This is the latest recevied weather packets stored in our database for station/object 9M4RBN-3. If no packets are shown the sender has not sent any weather packets the latest 10 day(s).
| Time | Temp. | Humidity | Pressure | Rain* | Wind** | Luminosity | Snow |
|---|---|---|---|---|---|---|---|
| 1787775544 | 26.67° C | 58% | 1017.5 hPa | - | - | - | - |
| 1787774644 | 27.22° C | 73% | 1017.5 hPa | - | - | - | - |
| 1787773744 | 27.22° C | 72% | 1017.3 hPa | - | - | - | - |
| 1787772844 | 27.22° C | 73% | 1017.4 hPa | - | - | - | - |
| 1787771944 | 27.22° C | 72% | 1017.5 hPa | - | - | - | - |
| 1787771044 | 27.22° C | 73% | 1017.4 hPa | - | - | - | - |
| 1787770143 | 27.22° C | 72% | 1017.4 hPa | - | - | - | - |
| 1787769243 | 27.22° C | 72% | 1017.5 hPa | - | - | - | - |
| 1787768343 | 27.22° C | 72% | 1017.7 hPa | - | - | - | - |
| 1787767443 | 27.22° C | 72% | 1017.8 hPa | - | - | - | - |
| 1787766543 | 26.67° C | 72% | 1017.9 hPa | - | - | - | - |
| 1787765680 | 26.67° C | 72% | 1017.9 hPa | - | - | - | - |
| 1787765643 | 26.67° C | 72% | 1017.9 hPa | - | - | - | - |
| 1787764743 | 26.67° C | 71% | 1017.9 hPa | - | - | - | - |
| 1787763843 | 26.67° C | 70% | 1018.1 hPa | - | - | - | - |
| 1787762943 | 26.11° C | 68% | 1018.3 hPa | - | - | - | - |
| 1787762082 | 25.56° C | 63% | 1018.6 hPa | - | - | - | - |
| 1787762043 | 25.56° C | 63% | 1018.6 hPa | - | - | - | - |
| 1787761143 | 25° C | 57% | 1018.7 hPa | - | - | - | - |
| 1787760243 | 23.89° C | 48% | 1018.8 hPa | - | - | - | - |
| 1787759343 | 23.89° C | 47% | 1018.9 hPa | - | - | - | - |
| 1787758444 | 23.89° C | 46% | 1019 hPa | - | - | - | - |
| 1787757544 | 23.89° C | 46% | 1018.9 hPa | - | - | - | - |
| 1787756644 | 24.44° C | 45% | 1018.9 hPa | - | - | - | - |
| 1787755744 | 24.44° C | 44% | 1019 hPa | - | - | - | - |
* Rain since midnight (hover to see other rain measurements)
** Current wind speed in m/s (hover to see current wind gust speed)